Data for 11/08/2014

Time Sea-Level Adjusted Pressure Absolute Pressure Temperature Relative Humidity Dew Point   
(mb) (inHg) (mb) (inHg) (C) (F) (%) (C) (F)
00:05 1027 30.33 857 25.31 1.8 35.3 67 -3.7 25.3
00:10 1027 30.33 857 25.31 1.8 35.3 67 -3.7 25.3
00:15 1027 30.33 857 25.31 1.8 35.3 66 -3.8 25.2
00:20 1027 30.33 857 25.31 1.8 35.3 67 -3.7 25.3
00:25 1027 30.33 857 25.31 1.8 35.3 67 -3.8 25.2
00:30 1027 30.33 857 25.31 1.8 35.3 66 -3.8 25.1
00:35 1027 30.33 857 25.31 1.9 35.4 66 -3.8 25.2
00:40 1027 30.33 857 25.31 1.8 35.3 67 -3.6 25.5
00:45 1027 30.33 857 25.31 1.9 35.4 66 -3.7 25.3
00:50 1027 30.33 857 25.31 2 35.6 66 -3.7 25.3
00:55 1027 30.33 857 25.31 1.9 35.4 67 -3.7 25.4
01:00 1027 30.33 857 25.31 1.8 35.3 66 -3.8 25.2
01:05 1027 30.33 857 25.31 2 35.6 64 -4 24.7
01:10 1027 30.33 857 25.31 2 35.6 65 -3.8 25.1
01:15 1027 30.33 857 25.31 1.7 35.1 67 -3.8 25.1
01:20 1027 30.33 857 25.31 1.4 34.5 68 -3.8 25.2
01:25 1027 30.33 857 25.31 1.2 34.1 69 -4 24.9
01:30 1027 30.33 856 25.28 0.9 33.7 70 -3.8 25.1
01:35 1027 30.33 856 25.28 1 33.9 70 -3.9 25
01:40 1027 30.33 856 25.28 1.1 33.9 70 -3.8 25.1
01:45 1027 30.33 856 25.28 0.9 33.6 71 -3.8 25.1
01:50 1027 30.33 856 25.28 1 33.7 70 -3.9 25
01:55 1027 30.33 856 25.28 1.1 34 69 -3.8 25.1
02:00 1027 30.33 856 25.28 1 33.7 70 -3.9 24.9
02:05 1027 30.33 856 25.28 0.9 33.7 70 -4 24.9
02:10 1027 30.33 856 25.28 0.9 33.6 70 -4 24.8
02:15 1027 30.33 856 25.28 0.7 33.2 71 -4 24.8
02:20 1027 30.33 856 25.28 0.6 33.1 71 -4.1 24.7
02:25 1027 30.33 856 25.28 0.6 33.1 71 -4.1 24.6
02:30 1027 30.33 856 25.28 0.7 33.2 70 -4.1 24.5
02:35 1027 30.33 856 25.28 0.8 33.5 69 -4.1 24.6
02:40 1027 30.33 856 25.28 0.8 33.5 71 -3.9 24.9
02:45 1027 30.33 856 25.28 0.6 33.1 71 -4 24.8
02:50 1027 30.33 856 25.28 0.6 33 71 -4 24.7
02:55 1027 30.33 856 25.28 0.4 32.7 73 -3.9 25
03:00 1027 30.33 856 25.28 0.2 32.4 73 -4.1 24.6
03:05 1027 30.33 856 25.28 0.1 32.3 73 -4.1 24.7
03:10 1026 30.3 856 25.28 0 32.1 73 -4.2 24.5
03:15 1026 30.3 856 25.28 0.2 32.3 72 -4.2 24.4
03:20 1026 30.3 856 25.28 0.5 32.8 70 -4.3 24.2
03:25 1026 30.3 856 25.28 0.8 33.5 68 -4.4 24
03:30 1026 30.3 855 25.25 1.2 34.2 67 -4.2 24.4
03:35 1026 30.3 855 25.25 1.2 34.2 68 -4.1 24.6
03:40 1026 30.3 855 25.25 1.1 34 68 -4.2 24.5
03:45 1026 30.3 855 25.25 1.1 33.9 68 -4.2 24.5
03:50 1026 30.3 855 25.25 1 33.8 69 -4.1 24.6
03:55 1026 30.3 855 25.25 0.9 33.6 69 -4.2 24.5
04:00 1026 30.3 855 25.25 0.9 33.6 69 -4.2 24.4
04:05 1026 30.3 855 25.25 0.6 33 70 -4.3 24.3
04:10 1026 30.3 855 25.25 0.8 33.5 68 -4.3 24.2
04:15 1026 30.3 855 25.25 0.9 33.5 69 -4.3 24.3
04:20 1026 30.3 855 25.25 0.6 33.1 70 -4.3 24.3
04:25 1026 30.3 855 25.25 0.5 32.8 70 -4.3 24.2
04:30 1026 30.3 855 25.25 0.5 32.9 70 -4.4 24
04:35 1026 30.3 855 25.25 0.6 33.1 70 -4.3 24.3
04:40 1026 30.3 855 25.25 0.4 32.7 71 -4.3 24.3
04:45 1026 30.3 855 25.25 0.5 33 69 -4.4 24.1
04:50 1026 30.3 855 25.25 0.5 32.9 70 -4.3 24.3
04:55 1025 30.27 855 25.25 0.2 32.4 71 -4.3 24.2
05:00 1025 30.27 855 25.25 -0 31.9 72 -4.5 24
05:05 1025 30.27 855 25.25 -0.2 31.6 72 -4.6 23.7
05:10 1025 30.27 855 25.25 -0.1 31.8 72 -4.5 23.9
05:15 1025 30.27 855 25.25 -0.4 31.3 73 -4.6 23.7
05:20 1025 30.27 855 25.25 -0.6 30.9 74 -4.7 23.6
05:25 1025 30.27 855 25.25 -0.7 30.7 74 -4.8 23.4
05:30 1025 30.27 855 25.25 -0.7 30.7 74 -4.7 23.5
05:35 1025 30.27 854 25.22 -0.9 30.4 75 -4.8 23.4
05:40 1025 30.27 854 25.22 -1 30.2 75 -4.8 23.3
05:45 1025 30.27 854 25.22 -1.1 30.1 75 -5 23
05:50 1025 30.27 854 25.22 -1 30.3 74 -5 23
05:55 1025 30.27 854 25.22 -0.6 30.9 73 -4.9 23.2
06:00 1025 30.27 854 25.22 -0.8 30.6 74 -4.8 23.3
06:05 1025 30.27 854 25.22 -1 30.3 75 -4.9 23.2
06:10 1025 30.27 854 25.22 -0.9 30.4 74 -5 23
06:15 1025 30.27 854 25.22 -0.6 30.8 73 -4.8 23.3
06:20 1025 30.27 854 25.22 -0.5 31.1 73 -4.8 23.3
06:25 1025 30.27 854 25.22 0.1 32.2 70 -4.7 23.5
06:30 1025 30.27 854 25.22 0.3 32.6 70 -4.5 23.9
06:35 1025 30.27 854 25.22 0.3 32.6 69 -4.7 23.5
06:40 1025 30.27 854 25.22 0.3 32.5 70 -4.6 23.7
06:45 1025 30.27 854 25.22 0.4 32.7 68 -4.8 23.4
06:50 1025 30.27 854 25.22 0.4 32.8 68 -4.8 23.4
06:55 1025 30.27 854 25.22 0.4 32.6 69 -4.7 23.5
07:00 1025 30.27 855 25.25 0.2 32.4 68 -4.9 23.1
07:05 1025 30.27 855 25.25 0.4 32.7 67 -5 23
07:10 1025 30.27 855 25.25 0.5 32.9 68 -4.8 23.3
07:15 1025 30.27 855 25.25 0.4 32.6 68 -4.9 23.1
07:20 1025 30.27 855 25.25 0.3 32.5 68 -5 23.1
07:25 1025 30.27 855 25.25 -0 32 70 -4.8 23.3
07:30 1025 30.27 855 25.25 -0.3 31.5 70 -5 23
07:35 1025 30.27 854 25.22 -0.5 31.2 71 -5.1 22.8
07:40 1025 30.27 854 25.22 -0.4 31.2 72 -5 23.1
07:45 1025 30.27 854 25.22 -0.2 31.6 71 -4.8 23.4
07:50 1025 30.27 855 25.25 -0.2 31.7 70 -4.9 23.2
07:55 1025 30.27 854 25.22 -0.3 31.4 70 -5.1 22.8
08:00 1025 30.27 854 25.22 -0.5 31 71 -5.1 22.8
08:05 1025 30.27 854 25.22 -0.9 30.4 73 -5.2 22.7
08:10 1025 30.27 854 25.22 -1 30.2 73 -5.3 22.5
08:15 1025 30.27 854 25.22 -1.1 30 73 -5.3 22.5
08:20 1025 30.27 854 25.22 -1.2 29.9 74 -5.3 22.5
08:25 1025 30.27 854 25.22 -0.7 30.8 71 -5.2 22.6
08:30 1025 30.27 854 25.22 -0.3 31.5 70 -5.1 22.8
08:35 1025 30.27 854 25.22 -0.3 31.4 72 -4.9 23.3
08:40 1025 30.27 854 25.22 -0.5 31.1 72 -4.9 23.1
08:45 1025 30.27 854 25.22 0.1 32.2 69 -4.9 23.1
08:50 1025 30.27 854 25.22 1.2 34.1 64 -4.9 23.2
08:55 1025 30.27 854 25.22 1.5 34.7 64 -4.5 23.8
09:00 1025 30.27 854 25.22 1.1 34 66 -4.5 23.9
09:05 1024 30.24 854 25.22 0.7 33.3 67 -4.7 23.5
09:10 1024 30.24 854 25.22 0.7 33.3 67 -4.6 23.7
09:15 1024 30.24 854 25.22 0.5 32.8 68 -4.7 23.5
09:20 1024 30.24 854 25.22 0.3 32.5 70 -4.5 23.9
09:25 1024 30.24 854 25.22 0.4 32.8 68 -4.7 23.5
09:30 1024 30.24 854 25.22 1.1 34 65 -4.6 23.7
09:35 1024 30.24 853 25.19 2 35.6 63 -4.4 24.1
09:40 1024 30.24 853 25.19 2.6 36.6 60 -4.4 24.2
09:45 1024 30.24 853 25.19 3.2 37.7 60 -3.9 25
09:50 1024 30.24 853 25.19 3.7 38.7 58 -3.8 25.2
09:55 1024 30.24 853 25.19 4.1 39.3 55 -4.2 24.4
10:00 1024 30.24 853 25.19 4.8 40.6 54 -3.7 25.3
10:05 1024 30.24 853 25.19 5.7 42.2 48 -4.4 24.1
10:10 1024 30.24 853 25.19 6.1 43 49 -3.9 24.9
10:15 1024 30.24 853 25.19 6.9 44.3 47 -3.6 25.5
10:20 1024 30.24 853 25.19 7.4 45.3 45 -3.7 25.3
10:25 1024 30.24 853 25.19 7.6 45.8 46 -3.2 26.2
10:30 1024 30.24 853 25.19 7.1 44.7 46 -3.9 25
10:35 1024 30.24 853 25.19 7.5 45.4 48 -2.9 26.7
10:40 1024 30.24 853 25.19 7.3 45.1 47 -3.3 26.1
10:45 1024 30.24 853 25.19 7.6 45.7 46 -3.2 26.3
10:50 1024 30.24 853 25.19 7.7 45.9 45 -3.4 25.8
10:55 1024 30.24 853 25.19 8.2 46.8 43 -3.5 25.8
11:00 1024 30.24 853 25.19 8.2 46.7 44 -3.2 26.2
11:05 1024 30.24 853 25.19 8.2 46.7 45 -3.1 26.5
11:10 1024 30.24 853 25.19 8.3 47 45 -3 26.6
11:15 1024 30.24 853 25.19 8.6 47.5 44 -2.8 26.9
11:20 1024 30.24 853 25.19 8.6 47.4 43 -3.3 26.1
11:25 1024 30.24 853 25.19 8.5 47.4 43 -3.2 26.3
11:30 1024 30.24 853 25.19 8.5 47.2 44 -3.2 26.3
11:35 1024 30.24 853 25.19 8.5 47.3 44 -3 26.5
11:40 1024 30.24 853 25.19 8.6 47.4 44 -3 26.7
11:45 1024 30.24 853 25.19 8.8 47.8 43 -3.1 26.4
11:50 1024 30.24 853 25.19 8.9 48 43 -2.9 26.8
11:55 1024 30.24 853 25.19 8.8 47.8 45 -2.5 27.4
12:00 1024 30.24 853 25.19 8.6 47.4 44 -2.9 26.7
12:05 1024 30.24 853 25.19 9.1 48.3 42 -3.3 26.1
12:10 1023 30.21 853 25.19 9.6 49.2 41 -3 26.6
12:15 1023 30.21 853 25.19 9.5 49.2 40 -3.3 26.1
12:20 1023 30.21 853 25.19 9.8 49.6 39 -3.5 25.6
12:25 1023 30.21 852 25.16 10.3 50.6 35 -4.5 23.9
12:30 1023 30.21 852 25.16 10.1 50.1 39 -3.2 26.2
12:35 1023 30.21 852 25.16 9.4 48.9 38 -4.2 24.4
12:40 1023 30.21 852 25.16 10.8 51.4 35 -4 24.7
12:45 1023 30.21 852 25.16 10.9 51.7 36 -3.6 25.5
12:50 1023 30.21 852 25.16 10.8 51.5 36 -3.6 25.6
12:55 1023 30.21 852 25.16 11.1 51.9 35 -3.7 25.4
13:00 1023 30.21 852 25.16 11.1 51.9 35 -3.8 25.1
13:05 1023 30.21 852 25.16 11 51.8 35 -3.9 24.9
13:10 1023 30.21 852 25.16 10.9 51.6 34 -4.2 24.4
13:15 1023 30.21 852 25.16 11 51.9 35 -3.8 25.2
13:20 1023 30.21 852 25.16 10.7 51.2 37 -3.4 25.8
13:25 1023 30.21 852 25.16 10.5 50.9 38 -3.4 25.9
13:30 1023 30.21 852 25.16 10.7 51.2 37 -3.5 25.8
13:35 1023 30.21 852 25.16 10.7 51.2 37 -3.5 25.7
13:40 1023 30.21 852 25.16 10.7 51.3 37 -3.3 26
13:45 1023 30.21 852 25.16 10.6 51 37 -3.3 26
13:50 1022 30.18 852 25.16 10.6 51.1 37 -3.3 26
13:55 1022 30.18 852 25.16 11 51.7 36 -3.3 26
14:00 1022 30.18 852 25.16 11.1 52 36 -3.3 26.1
14:05 1022 30.18 851 25.13 11.3 52.4 35 -3.6 25.5
14:10 1022 30.18 851 25.13 11.5 52.8 34 -3.7 25.4
14:15 1022 30.18 851 25.13 11.9 53.3 34 -3.5 25.7
14:20 1022 30.18 851 25.13 11.7 53 36 -3 26.7
14:25 1022 30.18 851 25.13 11.6 52.9 36 -3.1 26.5
14:30 1022 30.18 851 25.13 11.5 52.7 34 -3.6 25.4
14:35 1022 30.18 851 25.13 11.8 53.3 34 -3.4 25.9
14:40 1022 30.18 851 25.13 11.9 53.5 33 -3.6 25.5
14:45 1022 30.18 851 25.13 12.4 54.2 32 -3.9 24.9
14:50 1022 30.18 851 25.13 12.7 54.8 32 -3.7 25.4
14:55 1022 30.18 851 25.13 12.8 55.1 31 -3.7 25.4
15:00 1022 30.18 851 25.13 12.2 53.9 33 -3.5 25.7
15:05 1022 30.18 851 25.13 12.3 54.1 31 -4.4 24.1
15:10 1022 30.18 851 25.13 12.8 55.1 29 -4.6 23.7
15:15 1022 30.18 851 25.13 13.1 55.6 29 -4.6 23.7
15:20 1022 30.18 851 25.13 12.9 55.3 29 -4.7 23.6
15:25 1021 30.15 851 25.13 13.1 55.5 29 -4.6 23.8
15:30 1021 30.15 851 25.13 13.3 56 29 -4.2 24.4
15:35 1021 30.15 850 25.1 13.2 55.7 30 -4.1 24.6
15:40 1021 30.15 850 25.1 13.2 55.7 29 -4.3 24.2
15:45 1021 30.15 850 25.1 13.2 55.8 29 -4.2 24.4
15:50 1021 30.15 850 25.1 13.2 55.7 30 -4.2 24.5
15:55 1021 30.15 850 25.1 13.2 55.7 30 -4.2 24.5
16:00 1021 30.15 850 25.1 13 55.4 30 -4.1 24.7
16:05 1021 30.15 850 25.1 12.7 54.9 31 -3.9 25
16:10 1021 30.15 850 25.1 12.6 54.6 30 -4.4 24.1
16:15 1021 30.15 850 25.1 12.6 54.6 32 -3.6 25.4
16:20 1021 30.15 850 25.1 12.3 54.2 34 -3.2 26.2
16:25 1021 30.15 850 25.1 12.2 54 33 -3.5 25.7
16:30 1021 30.15 850 25.1 12.1 53.8 35 -3 26.6
16:35 1021 30.15 850 25.1 11.8 53.3 34 -3.5 25.7
16:40 1021 30.15 850 25.1 11.8 53.3 34 -3.4 25.9
16:45 1021 30.15 850 25.1 11.9 53.5 34 -3.6 25.6
16:50 1021 30.15 850 25.1 12.2 54 33 -3.6 25.6
16:55 1021 30.15 850 25.1 12.4 54.2 33 -3.5 25.6
17:00 1021 30.15 850 25.1 12.2 54 33 -3.6 25.5
17:05 1021 30.15 850 25.1 12 53.5 33 -4 24.9
17:10 1021 30.15 850 25.1 11.7 53.1 33 -4 24.8
17:15 1021 30.15 850 25.1 11.6 52.9 32 -4.5 23.9
17:20 1021 30.15 850 25.1 11.6 52.8 32 -4.4 24.2
17:25 1020 30.12 850 25.1 11.4 52.6 31 -4.9 23.2
17:30 1020 30.12 850 25.1 11.3 52.3 32 -4.6 23.7
17:35 1020 30.12 850 25.1 11.3 52.4 31 -5.2 22.7
17:40 1020 30.12 849 25.07 11.8 53.2 30 -5.1 22.8
17:45 1020 30.12 849 25.07 11.7 53.1 30 -5.2 22.7
17:50 1020 30.12 849 25.07 11.2 52.2 32 -4.8 23.4
17:55 1020 30.12 849 25.07 10.4 50.7 32 -5.7 21.7
18:00 1020 30.12 849 25.07 10.2 50.4 32 -5.5 22
18:05 1020 30.12 849 25.07 9.8 49.6 34 -5.4 22.2
18:10 1020 30.12 849 25.07 9.5 49.1 36 -4.7 23.6
18:15 1020 30.12 849 25.07 9.3 48.7 35 -5.2 22.6
18:20 1020 30.12 849 25.07 9.5 49.1 32 -6.4 20.5
18:25 1020 30.12 849 25.07 9.7 49.5 34 -5.2 22.7
18:30 1020 30.12 849 25.07 9.2 48.6 34 -5.8 21.6
18:35 1020 30.12 849 25.07 9.1 48.5 36 -5.3 22.4
18:40 1020 30.12 849 25.07 9.1 48.4 35 -5.5 22.2
18:45 1020 30.12 849 25.07 9.2 48.5 36 -5.3 22.5
18:50 1020 30.12 849 25.07 9.1 48.5 36 -5 23
18:55 1020 30.12 849 25.07 8.7 47.7 39 -4.6 23.8
19:00 1020 30.12 849 25.07 8.3 47 39 -4.7 23.5
19:05 1020 30.12 849 25.07 8 46.5 39 -5.1 22.9
19:10 1020 30.12 849 25.07 7.9 46.3 38 -5.6 21.9
19:15 1020 30.12 849 25.07 7.8 46 39 -5.2 22.7
19:20 1020 30.12 849 25.07 7.3 45.2 40 -5.3 22.5
19:25 1020 30.12 849 25.07 7.1 44.8 38 -6.2 20.9
19:30 1020 30.12 849 25.07 7.4 45.3 39 -5.7 21.8
19:35 1020 30.12 849 25.07 7.5 45.5 35 -6.9 19.5
19:40 1020 30.12 849 25.07 8.1 46.6 32 -7.6 18.3
19:45 1020 30.12 849 25.07 8.6 47.5 32 -7 19.4
19:50 1020 30.12 849 25.07 8.7 47.6 31 -7.5 18.5
19:55 1019 30.09 849 25.07 8.6 47.4 32 -7.2 19.1
20:00 1019 30.09 849 25.07 8.3 47 30 -8 17.5
20:05 1019 30.09 849 25.07 8.9 48.1 28 -8.6 16.5
20:10 1019 30.09 849 25.07 9.4 49 27 -8.4 16.8
20:15 1019 30.09 849 25.07 9.5 49.1 27 -8.6 16.4
20:20 1019 30.09 849 25.07 9.7 49.4 25 -9.2 15.4
20:25 1019 30.09 849 25.07 10 50 25 -9 15.8
20:30 1019 30.09 849 25.07 10 50.1 26 -8.8 16.1
20:35 1019 30.09 849 25.07 10 50.1 25 -8.9 15.9
20:40 1019 30.09 849 25.07 10 50 27 -8.1 17.4
20:45 1019 30.09 849 25.07 9.3 48.8 30 -7.6 18.4
20:50 1019 30.09 849 25.07 8.7 47.6 27 -9.1 15.6
20:55 1019 30.09 849 25.07 9 48.1 27 -9.1 15.6
21:00 1019 30.09 849 25.07 9.2 48.5 27 -8.9 16
21:05 1019 30.09 849 25.07 9.5 49.1 29 -7.8 18
21:10 1019 30.09 849 25.07 9 48.2 29 -8.1 17.5
21:15 1019 30.09 849 25.07 8.4 47 31 -8 17.6
21:20 1019 30.09 849 25.07 8 46.5 32 -7.6 18.3
21:25 1019 30.09 849 25.07 7.8 46 31 -8.4 16.9
21:30 1019 30.09 848 25.04 7.8 46.1 30 -8.6 16.5
21:35 1019 30.09 848 25.04 7.9 46.2 32 -7.9 17.8
21:40 1019 30.09 848 25.04 7.6 45.8 32 -8.2 17.3
21:45 1019 30.09 848 25.04 7.8 46 30 -8.8 16.2
21:50 1019 30.09 848 25.04 8.2 46.8 29 -8.6 16.5
21:55 1019 30.09 848 25.04 8.5 47.4 30 -8.2 17.2
22:00 1019 30.09 848 25.04 8.1 46.5 32 -7.7 18.1
22:05 1019 30.09 848 25.04 7.9 46.1 29 -8.9 15.9
22:10 1019 30.09 848 25.04 8.3 46.9 31 -7.9 17.7
22:15 1019 30.09 848 25.04 8 46.4 31 -8 17.6
22:20 1019 30.09 848 25.04 7.7 45.9 31 -8.6 16.6
22:25 1019 30.09 848 25.04 7.9 46.3 31 -8 17.5
22:30 1019 30.09 848 25.04 7.5 45.5 30 -8.8 16.2
22:35 1019 30.09 848 25.04 8.2 46.8 30 -8.5 16.7
22:40 1019 30.09 848 25.04 8.1 46.5 30 -8.4 16.9
22:45 1019 30.09 848 25.04 8.6 47.5 29 -8.3 17
22:50 1019 30.09 848 25.04 9.1 48.3 29 -8.1 17.5
22:55 1019 30.09 848 25.04 9.4 49 29 -7.9 17.7
23:00 1019 30.09 848 25.04 8.9 48 31 -7.5 18.5
23:05 1019 30.09 848 25.04 8.6 47.5 30 -8 17.6
23:10 1019 30.09 848 25.04 9.1 48.4 30 -7.8 18
23:15 1018 30.06 848 25.04 9.3 48.8 31 -7.1 19.2
23:20 1018 30.06 848 25.04 9.1 48.3 30 -7.6 18.4
23:25 1018 30.06 848 25.04 9 48.3 31 -7.4 18.7
23:30 1018 30.06 848 25.04 9.1 48.4 30 -7.4 18.7
23:35 1018 30.06 847 25.01 9 48.2 30 -7.4 18.6
23:40 1018 30.06 847 25.01 9 48.2 31 -7.4 18.7
23:45 1018 30.06 847 25.01 9.1 48.4 30 -7.4 18.6
23:50 1018 30.06 847 25.01 9.3 48.8 30 -7.4 18.6
23:55 1018 30.06 847 25.01 9.7 49.5 29 -7.6 18.3
24:00 1018 30.06 847 25.01 10 50 29 -7.2 19.1